Terminal Aerodrome Forecast
Issued by NWS Knoxville/Tri Cities, TN

Home | Current Version | Previous Version | Text Only | Print | Product List | Glossary On
Versions: 1 2 3 4 5 6 7 8 9 10 11 12 13 14 15 16 17 18 19 20 21 22 23
000
FTUS44 KMRX 230524
TAFTYS
TAF
KTYS 230524Z 2306/2406 03005KT P6SM SCT150 BKN250
     FM230800 04003KT P6SM BKN080
     FM231200 06008KT P6SM OVC060
     FM231800 07010KT 4SM -RA BR OVC050
     FM232100 18009KT 3SM -RA BR OVC035
     FM240200 22012KT P6SM VCSH BKN035=

USA.gov is the U.S. government's official web portal to all federal, state and local government web resources and services.